sensor_id;sensor_type;location;lat;lon;timestamp;P1;durP1;ratioP1;P2;durP2;ratioP2
19919;SDS011;10122;50.074;19.920;2023-04-27T00:00:26;20.20;;;10.23;;
19919;SDS011;10122;50.074;19.920;2023-04-27T00:02:52;21.52;;;10.07;;
19919;SDS011;10122;50.074;19.920;2023-04-27T00:05:18;23.80;;;11.63;;
19919;SDS011;10122;50.074;19.920;2023-04-27T00:07:44;20.77;;;10.90;;
19919;SDS011;10122;50.074;19.920;2023-04-27T00:10:10;21.98;;;11.43;;
19919;SDS011;10122;50.074;19.920;2023-04-27T00:12:36;24.95;;;11.18;;
19919;SDS011;10122;50.074;19.920;2023-04-27T00:15:03;24.15;;;11.23;;
19919;SDS011;10122;50.074;19.920;2023-04-27T00:17:29;21.42;;;10.90;;
19919;SDS011;10122;50.074;19.920;2023-04-27T00:19:55;20.10;;;10.52;;
19919;SDS011;10122;50.074;19.920;2023-04-27T00:22:20;20.25;;;11.05;;
19919;SDS011;10122;50.074;19.920;2023-04-27T00:24:46;22.45;;;10.95;;
19919;SDS011;10122;50.074;19.920;2023-04-27T00:27:12;24.42;;;11.20;;
19919;SDS011;10122;50.074;19.920;2023-04-27T00:29:38;22.33;;;11.35;;
19919;SDS011;10122;50.074;19.920;2023-04-27T00:32:10;22.90;;;11.13;;
19919;SDS011;10122;50.074;19.920;2023-04-27T00:34:36;22.40;;;10.95;;
19919;SDS011;10122;50.074;19.920;2023-04-27T00:37:02;23.00;;;10.43;;
19919;SDS011;10122;50.074;19.920;2023-04-27T00:39:29;26.55;;;11.93;;
19919;SDS011;10122;50.074;19.920;2023-04-27T00:41:55;25.55;;;11.23;;
19919;SDS011;10122;50.074;19.920;2023-04-27T00:44:24;21.98;;;10.88;;
19919;SDS011;10122;50.074;19.920;2023-04-27T00:46:51;21.38;;;10.68;;
19919;SDS011;10122;50.074;19.920;2023-04-27T00:49:18;22.33;;;10.95;;
19919;SDS011;10122;50.074;19.920;2023-04-27T00:51:45;23.23;;;11.60;;
19919;SDS011;10122;50.074;19.920;2023-04-27T00:54:12;21.58;;;11.20;;
19919;SDS011;10122;50.074;19.920;2023-04-27T00:56:42;23.95;;;11.45;;
19919;SDS011;10122;50.074;19.920;2023-04-27T00:59:09;21.58;;;10.95;;
19919;SDS011;10122;50.074;19.920;2023-04-27T01:01:34;26.17;;;11.65;;
19919;SDS011;10122;50.074;19.920;2023-04-27T01:04:00;23.83;;;11.30;;
19919;SDS011;10122;50.074;19.920;2023-04-27T01:06:26;22.25;;;10.57;;
19919;SDS011;10122;50.074;19.920;2023-04-27T01:08:53;22.50;;;11.23;;
19919;SDS011;10122;50.074;19.920;2023-04-27T01:11:20;19.45;;;10.50;;
19919;SDS011;10122;50.074;19.920;2023-04-27T01:13:45;22.80;;;10.68;;
19919;SDS011;10122;50.074;19.920;2023-04-27T01:16:11;19.48;;;10.40;;
19919;SDS011;10122;50.074;19.920;2023-04-27T01:18:37;24.30;;;10.95;;
19919;SDS011;10122;50.074;19.920;2023-04-27T01:21:04;22.75;;;10.77;;
19919;SDS011;10122;50.074;19.920;2023-04-27T01:23:31;23.25;;;11.20;;
19919;SDS011;10122;50.074;19.920;2023-04-27T01:25:56;24.75;;;11.65;;
19919;SDS011;10122;50.074;19.920;2023-04-27T01:28:22;23.67;;;11.10;;
19919;SDS011;10122;50.074;19.920;2023-04-27T01:30:48;24.90;;;11.57;;
19919;SDS011;10122;50.074;19.920;2023-04-27T01:33:13;22.10;;;11.05;;
19919;SDS011;10122;50.074;19.920;2023-04-27T01:35:39;24.77;;;11.88;;
19919;SDS011;10122;50.074;19.920;2023-04-27T01:38:05;26.60;;;12.20;;
19919;SDS011;10122;50.074;19.920;2023-04-27T01:40:31;22.88;;;10.65;;
19919;SDS011;10122;50.074;19.920;2023-04-27T01:42:56;24.48;;;11.75;;
19919;SDS011;10122;50.074;19.920;2023-04-27T01:45:22;24.98;;;11.35;;
19919;SDS011;10122;50.074;19.920;2023-04-27T01:47:51;22.05;;;11.35;;
19919;SDS011;10122;50.074;19.920;2023-04-27T01:50:17;19.42;;;10.48;;
19919;SDS011;10122;50.074;19.920;2023-04-27T01:52:43;24.10;;;11.27;;
19919;SDS011;10122;50.074;19.920;2023-04-27T01:55:09;24.55;;;11.55;;
19919;SDS011;10122;50.074;19.920;2023-04-27T01:57:35;23.48;;;11.50;;
19919;SDS011;10122;50.074;19.920;2023-04-27T02:00:00;28.52;;;12.63;;
19919;SDS011;10122;50.074;19.920;2023-04-27T02:02:26;26.67;;;12.40;;
19919;SDS011;10122;50.074;19.920;2023-04-27T02:04:52;30.17;;;13.55;;
19919;SDS011;10122;50.074;19.920;2023-04-27T02:07:18;27.85;;;13.63;;
19919;SDS011;10122;50.074;19.920;2023-04-27T02:09:43;28.23;;;13.07;;
19919;SDS011;10122;50.074;19.920;2023-04-27T02:12:09;24.15;;;13.00;;
19919;SDS011;10122;50.074;19.920;2023-04-27T02:14:35;28.58;;;13.48;;
19919;SDS011;10122;50.074;19.920;2023-04-27T02:17:01;30.20;;;13.80;;
19919;SDS011;10122;50.074;19.920;2023-04-27T02:19:27;28.80;;;12.95;;
19919;SDS011;10122;50.074;19.920;2023-04-27T02:21:52;27.45;;;13.85;;
19919;SDS011;10122;50.074;19.920;2023-04-27T02:24:18;24.00;;;13.27;;
19919;SDS011;10122;50.074;19.920;2023-04-27T02:26:44;28.50;;;13.93;;
19919;SDS011;10122;50.074;19.920;2023-04-27T02:29:09;24.20;;;12.65;;
19919;SDS011;10122;50.074;19.920;2023-04-27T02:31:35;27.40;;;13.88;;
19919;SDS011;10122;50.074;19.920;2023-04-27T02:34:01;29.17;;;14.48;;
19919;SDS011;10122;50.074;19.920;2023-04-27T02:36:27;28.48;;;14.80;;
19919;SDS011;10122;50.074;19.920;2023-04-27T02:38:52;25.33;;;13.43;;
19919;SDS011;10122;50.074;19.920;2023-04-27T02:41:18;29.00;;;14.40;;
19919;SDS011;10122;50.074;19.920;2023-04-27T02:43:43;29.20;;;14.38;;
19919;SDS011;10122;50.074;19.920;2023-04-27T02:46:10;28.63;;;14.20;;
19919;SDS011;10122;50.074;19.920;2023-04-27T02:48:36;28.23;;;14.18;;
19919;SDS011;10122;50.074;19.920;2023-04-27T02:51:02;29.05;;;14.90;;
19919;SDS011;10122;50.074;19.920;2023-04-27T02:53:28;26.70;;;13.75;;
19919;SDS011;10122;50.074;19.920;2023-04-27T02:55:54;32.55;;;15.02;;
19919;SDS011;10122;50.074;19.920;2023-04-27T02:58:20;32.80;;;15.00;;
19919;SDS011;10122;50.074;19.920;2023-04-27T03:00:46;34.30;;;15.50;;
19919;SDS011;10122;50.074;19.920;2023-04-27T03:03:17;34.33;;;15.70;;
19919;SDS011;10122;50.074;19.920;2023-04-27T03:05:43;30.77;;;15.75;;
19919;SDS011;10122;50.074;19.920;2023-04-27T03:08:08;31.48;;;14.85;;
19919;SDS011;10122;50.074;19.920;2023-04-27T03:10:34;36.47;;;16.25;;
19919;SDS011;10122;50.074;19.920;2023-04-27T03:13:00;34.53;;;16.00;;
19919;SDS011;10122;50.074;19.920;2023-04-27T03:15:25;34.75;;;15.63;;
19919;SDS011;10122;50.074;19.920;2023-04-27T03:17:51;32.33;;;16.17;;
19919;SDS011;10122;50.074;19.920;2023-04-27T03:20:17;32.50;;;16.38;;
19919;SDS011;10122;50.074;19.920;2023-04-27T03:22:42;30.45;;;16.05;;
19919;SDS011;10122;50.074;19.920;2023-04-27T03:25:09;35.33;;;15.75;;
19919;SDS011;10122;50.074;19.920;2023-04-27T03:27:35;30.33;;;15.65;;
19919;SDS011;10122;50.074;19.920;2023-04-27T03:30:01;29.23;;;16.02;;
19919;SDS011;10122;50.074;19.920;2023-04-27T03:32:28;30.83;;;15.60;;
19919;SDS011;10122;50.074;19.920;2023-04-27T03:34:54;30.77;;;15.57;;
19919;SDS011;10122;50.074;19.920;2023-04-27T03:37:20;30.25;;;16.02;;
19919;SDS011;10122;50.074;19.920;2023-04-27T03:39:46;30.77;;;15.73;;
19919;SDS011;10122;50.074;19.920;2023-04-27T03:42:11;31.73;;;15.65;;
19919;SDS011;10122;50.074;19.920;2023-04-27T03:44:37;31.52;;;15.65;;
19919;SDS011;10122;50.074;19.920;2023-04-27T03:47:03;33.28;;;15.88;;
19919;SDS011;10122;50.074;19.920;2023-04-27T03:49:33;33.90;;;15.25;;
19919;SDS011;10122;50.074;19.920;2023-04-27T03:51:59;34.97;;;16.05;;
19919;SDS011;10122;50.074;19.920;2023-04-27T03:54:25;30.23;;;15.30;;
19919;SDS011;10122;50.074;19.920;2023-04-27T03:56:51;31.38;;;15.38;;
19919;SDS011;10122;50.074;19.920;2023-04-27T03:59:16;31.90;;;14.90;;
19919;SDS011;10122;50.074;19.920;2023-04-27T04:01:42;29.25;;;15.23;;
19919;SDS011;10122;50.074;19.920;2023-04-27T04:04:08;31.30;;;15.55;;
19919;SDS011;10122;50.074;19.920;2023-04-27T04:06:33;33.65;;;15.77;;
19919;SDS011;10122;50.074;19.920;2023-04-27T04:09:00;34.00;;;16.35;;
19919;SDS011;10122;50.074;19.920;2023-04-27T04:11:26;29.60;;;15.70;;
19919;SDS011;10122;50.074;19.920;2023-04-27T04:13:52;31.13;;;16.13;;
19919;SDS011;10122;50.074;19.920;2023-04-27T04:16:18;33.15;;;15.38;;
19919;SDS011;10122;50.074;19.920;2023-04-27T04:18:43;33.25;;;16.23;;
19919;SDS011;10122;50.074;19.920;2023-04-27T04:21:09;34.90;;;16.98;;
19919;SDS011;10122;50.074;19.920;2023-04-27T04:23:35;31.65;;;15.73;;
19919;SDS011;10122;50.074;19.920;2023-04-27T04:26:02;37.90;;;16.02;;
19919;SDS011;10122;50.074;19.920;2023-04-27T04:28:28;32.65;;;16.33;;
19919;SDS011;10122;50.074;19.920;2023-04-27T04:30:54;35.90;;;16.98;;
19919;SDS011;10122;50.074;19.920;2023-04-27T04:33:20;28.50;;;15.20;;
19919;SDS011;10122;50.074;19.920;2023-04-27T04:35:46;30.55;;;15.50;;
19919;SDS011;10122;50.074;19.920;2023-04-27T04:38:12;32.25;;;16.98;;
19919;SDS011;10122;50.074;19.920;2023-04-27T04:40:38;31.77;;;15.90;;
19919;SDS011;10122;50.074;19.920;2023-04-27T04:43:04;30.38;;;15.70;;
19919;SDS011;10122;50.074;19.920;2023-04-27T04:45:30;30.92;;;16.25;;
19919;SDS011;10122;50.074;19.920;2023-04-27T04:47:56;32.63;;;16.38;;
19919;SDS011;10122;50.074;19.920;2023-04-27T04:50:22;32.35;;;15.10;;
19919;SDS011;10122;50.074;19.920;2023-04-27T04:52:48;33.58;;;15.52;;
19919;SDS011;10122;50.074;19.920;2023-04-27T04:55:14;31.23;;;16.33;;
19919;SDS011;10122;50.074;19.920;2023-04-27T04:57:39;31.95;;;15.23;;
19919;SDS011;10122;50.074;19.920;2023-04-27T05:00:05;30.73;;;15.90;;
19919;SDS011;10122;50.074;19.920;2023-04-27T05:02:40;30.08;;;15.95;;
19919;SDS011;10122;50.074;19.920;2023-04-27T05:05:06;34.53;;;15.27;;
19919;SDS011;10122;50.074;19.920;2023-04-27T05:07:33;40.28;;;17.25;;
19919;SDS011;10122;50.074;19.920;2023-04-27T05:09:59;32.38;;;16.30;;
19919;SDS011;10122;50.074;19.920;2023-04-27T05:12:24;34.28;;;17.10;;
19919;SDS011;10122;50.074;19.920;2023-04-27T05:14:51;37.15;;;16.95;;
19919;SDS011;10122;50.074;19.920;2023-04-27T05:17:16;31.27;;;16.60;;
19919;SDS011;10122;50.074;19.920;2023-04-27T05:19:42;32.60;;;15.98;;
19919;SDS011;10122;50.074;19.920;2023-04-27T05:22:09;32.90;;;16.00;;
19919;SDS011;10122;50.074;19.920;2023-04-27T05:24:34;31.40;;;15.65;;
19919;SDS011;10122;50.074;19.920;2023-04-27T05:27:00;29.23;;;15.23;;
19919;SDS011;10122;50.074;19.920;2023-04-27T05:29:26;35.10;;;16.40;;
19919;SDS011;10122;50.074;19.920;2023-04-27T05:31:52;31.65;;;15.27;;
19919;SDS011;10122;50.074;19.920;2023-04-27T05:34:18;32.15;;;15.63;;
19919;SDS011;10122;50.074;19.920;2023-04-27T05:36:44;31.48;;;16.08;;
19919;SDS011;10122;50.074;19.920;2023-04-27T05:39:13;34.80;;;16.38;;
19919;SDS011;10122;50.074;19.920;2023-04-27T05:41:38;28.13;;;14.10;;
19919;SDS011;10122;50.074;19.920;2023-04-27T05:44:04;29.20;;;14.63;;
19919;SDS011;10122;50.074;19.920;2023-04-27T05:46:30;24.73;;;13.50;;
19919;SDS011;10122;50.074;19.920;2023-04-27T05:48:56;25.45;;;14.23;;
19919;SDS011;10122;50.074;19.920;2023-04-27T05:51:22;30.73;;;14.27;;
19919;SDS011;10122;50.074;19.920;2023-04-27T05:53:48;29.38;;;13.57;;
19919;SDS011;10122;50.074;19.920;2023-04-27T05:56:13;21.75;;;11.85;;
19919;SDS011;10122;50.074;19.920;2023-04-27T05:58:39;24.92;;;11.90;;
19919;SDS011;10122;50.074;19.920;2023-04-27T06:01:06;19.45;;;10.95;;
19919;SDS011;10122;50.074;19.920;2023-04-27T06:03:31;26.23;;;11.85;;
19919;SDS011;10122;50.074;19.920;2023-04-27T06:05:58;23.20;;;11.50;;
19919;SDS011;10122;50.074;19.920;2023-04-27T06:08:25;22.20;;;11.25;;
19919;SDS011;10122;50.074;19.920;2023-04-27T06:10:51;22.33;;;12.25;;
19919;SDS011;10122;50.074;19.920;2023-04-27T06:13:18;22.00;;;10.95;;
19919;SDS011;10122;50.074;19.920;2023-04-27T06:15:44;20.40;;;11.30;;
19919;SDS011;10122;50.074;19.920;2023-04-27T06:18:10;26.65;;;11.80;;
19919;SDS011;10122;50.074;19.920;2023-04-27T06:20:36;21.65;;;11.15;;
19919;SDS011;10122;50.074;19.920;2023-04-27T06:23:02;20.73;;;10.68;;
19919;SDS011;10122;50.074;19.920;2023-04-27T06:25:27;21.27;;;10.68;;
19919;SDS011;10122;50.074;19.920;2023-04-27T06:27:53;22.65;;;10.98;;
19919;SDS011;10122;50.074;19.920;2023-04-27T06:30:20;19.95;;;10.48;;
19919;SDS011;10122;50.074;19.920;2023-04-27T06:32:46;19.63;;;9.95;;
19919;SDS011;10122;50.074;19.920;2023-04-27T06:35:12;20.05;;;10.27;;
19919;SDS011;10122;50.074;19.920;2023-04-27T06:37:38;21.65;;;10.30;;
19919;SDS011;10122;50.074;19.920;2023-04-27T06:40:04;18.45;;;10.13;;
19919;SDS011;10122;50.074;19.920;2023-04-27T06:42:32;20.67;;;10.15;;
19919;SDS011;10122;50.074;19.920;2023-04-27T06:44:58;16.70;;;9.02;;
19919;SDS011;10122;50.074;19.920;2023-04-27T06:47:23;18.65;;;9.23;;
19919;SDS011;10122;50.074;19.920;2023-04-27T06:49:49;19.58;;;10.02;;
19919;SDS011;10122;50.074;19.920;2023-04-27T06:52:15;17.90;;;9.90;;
19919;SDS011;10122;50.074;19.920;2023-04-27T06:54:41;19.48;;;9.80;;
19919;SDS011;10122;50.074;19.920;2023-04-27T06:57:07;19.52;;;9.10;;
19919;SDS011;10122;50.074;19.920;2023-04-27T06:59:32;17.77;;;9.23;;
19919;SDS011;10122;50.074;19.920;2023-04-27T07:01:59;17.45;;;9.02;;
19919;SDS011;10122;50.074;19.920;2023-04-27T07:04:25;15.38;;;8.55;;
19919;SDS011;10122;50.074;19.920;2023-04-27T07:06:51;14.25;;;8.13;;
19919;SDS011;10122;50.074;19.920;2023-04-27T07:09:17;14.52;;;8.38;;
19919;SDS011;10122;50.074;19.920;2023-04-27T07:11:43;14.60;;;8.68;;
19919;SDS011;10122;50.074;19.920;2023-04-27T07:14:08;15.00;;;8.18;;
19919;SDS011;10122;50.074;19.920;2023-04-27T07:16:34;15.68;;;8.43;;
19919;SDS011;10122;50.074;19.920;2023-04-27T07:19:00;13.18;;;7.68;;
19919;SDS011;10122;50.074;19.920;2023-04-27T07:21:26;17.48;;;7.50;;
19919;SDS011;10122;50.074;19.920;2023-04-27T07:23:52;13.05;;;6.88;;
19919;SDS011;10122;50.074;19.920;2023-04-27T07:26:18;15.70;;;6.43;;
19919;SDS011;10122;50.074;19.920;2023-04-27T07:28:45;10.35;;;5.30;;
19919;SDS011;10122;50.074;19.920;2023-04-27T07:31:11;13.52;;;6.05;;
19919;SDS011;10122;50.074;19.920;2023-04-27T07:33:38;11.13;;;5.30;;
19919;SDS011;10122;50.074;19.920;2023-04-27T07:36:04;9.55;;;5.63;;
19919;SDS011;10122;50.074;19.920;2023-04-27T07:38:29;10.43;;;5.35;;
19919;SDS011;10122;50.074;19.920;2023-04-27T07:41:01;9.10;;;5.40;;
19919;SDS011;10122;50.074;19.920;2023-04-27T07:43:29;10.85;;;5.32;;
19919;SDS011;10122;50.074;19.920;2023-04-27T07:45:56;12.00;;;5.85;;
19919;SDS011;10122;50.074;19.920;2023-04-27T07:48:22;12.30;;;5.68;;
19919;SDS011;10122;50.074;19.920;2023-04-27T07:50:48;11.55;;;5.63;;
19919;SDS011;10122;50.074;19.920;2023-04-27T07:53:14;12.75;;;6.60;;
19919;SDS011;10122;50.074;19.920;2023-04-27T07:55:40;11.88;;;5.75;;
19919;SDS011;10122;50.074;19.920;2023-04-27T07:58:08;14.45;;;6.43;;
19919;SDS011;10122;50.074;19.920;2023-04-27T08:00:35;11.35;;;6.18;;
19919;SDS011;10122;50.074;19.920;2023-04-27T08:03:01;10.70;;;5.60;;
19919;SDS011;10122;50.074;19.920;2023-04-27T08:05:27;9.18;;;4.93;;
19919;SDS011;10122;50.074;19.920;2023-04-27T08:07:53;9.15;;;4.97;;
19919;SDS011;10122;50.074;19.920;2023-04-27T08:10:18;8.48;;;4.28;;
19919;SDS011;10122;50.074;19.920;2023-04-27T08:12:44;10.88;;;4.40;;
19919;SDS011;10122;50.074;19.920;2023-04-27T08:15:10;7.60;;;3.83;;
19919;SDS011;10122;50.074;19.920;2023-04-27T08:17:36;5.95;;;3.65;;
19919;SDS011;10122;50.074;19.920;2023-04-27T08:20:05;6.88;;;3.63;;
19919;SDS011;10122;50.074;19.920;2023-04-27T08:22:31;12.25;;;4.35;;
19919;SDS011;10122;50.074;19.920;2023-04-27T08:24:58;8.68;;;4.20;;
19919;SDS011;10122;50.074;19.920;2023-04-27T08:27:24;11.68;;;4.20;;
19919;SDS011;10122;50.074;19.920;2023-04-27T08:29:49;10.38;;;4.03;;
19919;SDS011;10122;50.074;19.920;2023-04-27T08:32:15;6.90;;;3.72;;
19919;SDS011;10122;50.074;19.920;2023-04-27T08:34:41;7.30;;;3.67;;
19919;SDS011;10122;50.074;19.920;2023-04-27T08:37:08;6.70;;;3.78;;
19919;SDS011;10122;50.074;19.920;2023-04-27T08:39:34;9.07;;;3.63;;
19919;SDS011;10122;50.074;19.920;2023-04-27T08:42:00;9.43;;;4.05;;
19919;SDS011;10122;50.074;19.920;2023-04-27T08:44:26;8.00;;;2.90;;
19919;SDS011;10122;50.074;19.920;2023-04-27T08:46:51;7.40;;;3.70;;
19919;SDS011;10122;50.074;19.920;2023-04-27T08:49:17;5.70;;;2.88;;
19919;SDS011;10122;50.074;19.920;2023-04-27T08:51:44;7.68;;;3.60;;
19919;SDS011;10122;50.074;19.920;2023-04-27T08:54:10;7.50;;;3.30;;
19919;SDS011;10122;50.074;19.920;2023-04-27T08:56:36;7.30;;;3.13;;
19919;SDS011;10122;50.074;19.920;2023-04-27T08:59:01;7.10;;;3.33;;
19919;SDS011;10122;50.074;19.920;2023-04-27T09:01:28;7.80;;;3.55;;
19919;SDS011;10122;50.074;19.920;2023-04-27T09:03:57;8.32;;;3.00;;
19919;SDS011;10122;50.074;19.920;2023-04-27T09:06:30;7.03;;;3.40;;
19919;SDS011;10122;50.074;19.920;2023-04-27T09:08:57;6.80;;;3.60;;
19919;SDS011;10122;50.074;19.920;2023-04-27T09:11:41;8.77;;;3.55;;
19919;SDS011;10122;50.074;19.920;2023-04-27T09:16:42;5.32;;;3.22;;
19919;SDS011;10122;50.074;19.920;2023-04-27T09:19:08;7.85;;;3.30;;
19919;SDS011;10122;50.074;19.920;2023-04-27T09:21:34;8.45;;;3.20;;
19919;SDS011;10122;50.074;19.920;2023-04-27T09:24:10;6.15;;;3.70;;
19919;SDS011;10122;50.074;19.920;2023-04-27T09:26:37;8.45;;;3.90;;
19919;SDS011;10122;50.074;19.920;2023-04-27T09:29:03;6.75;;;3.60;;
19919;SDS011;10122;50.074;19.920;2023-04-27T09:31:33;7.03;;;3.67;;
19919;SDS011;10122;50.074;19.920;2023-04-27T09:33:59;6.50;;;3.50;;
19919;SDS011;10122;50.074;19.920;2023-04-27T09:36:26;7.38;;;3.50;;
19919;SDS011;10122;50.074;19.920;2023-04-27T09:38:52;7.15;;;3.38;;
19919;SDS011;10122;50.074;19.920;2023-04-27T09:41:18;8.00;;;3.80;;
19919;SDS011;10122;50.074;19.920;2023-04-27T09:43:45;8.02;;;4.10;;
19919;SDS011;10122;50.074;19.920;2023-04-27T09:46:11;7.43;;;3.72;;
19919;SDS011;10122;50.074;19.920;2023-04-27T09:48:38;9.80;;;4.38;;
19919;SDS011;10122;50.074;19.920;2023-04-27T09:51:05;7.05;;;3.55;;
19919;SDS011;10122;50.074;19.920;2023-04-27T10:01:46;9.05;;;4.38;;
19919;SDS011;10122;50.074;19.920;2023-04-27T10:06:58;7.28;;;3.80;;
19919;SDS011;10122;50.074;19.920;2023-04-27T10:09:24;8.02;;;4.47;;
19919;SDS011;10122;50.074;19.920;2023-04-27T10:11:51;9.50;;;4.60;;
19919;SDS011;10122;50.074;19.920;2023-04-27T10:14:20;9.07;;;4.50;;
19919;SDS011;10122;50.074;19.920;2023-04-27T10:16:51;7.28;;;4.28;;
19919;SDS011;10122;50.074;19.920;2023-04-27T10:19:18;8.70;;;4.20;;
19919;SDS011;10122;50.074;19.920;2023-04-27T10:21:58;7.45;;;4.10;;
19919;SDS011;10122;50.074;19.920;2023-04-27T10:24:30;9.93;;;4.80;;
19919;SDS011;10122;50.074;19.920;2023-04-27T10:27:04;9.32;;;4.50;;
19919;SDS011;10122;50.074;19.920;2023-04-27T10:29:38;8.63;;;4.07;;
19919;SDS011;10122;50.074;19.920;2023-04-27T10:32:22;7.05;;;4.55;;
19919;SDS011;10122;50.074;19.920;2023-04-27T10:34:50;7.00;;;4.50;;
19919;SDS011;10122;50.074;19.920;2023-04-27T10:37:36;8.98;;;4.32;;
19919;SDS011;10122;50.074;19.920;2023-04-27T10:40:06;9.88;;;4.47;;
19919;SDS011;10122;50.074;19.920;2023-04-27T10:42:34;7.55;;;4.60;;
19919;SDS011;10122;50.074;19.920;2023-04-27T10:45:00;8.48;;;4.28;;
19919;SDS011;10122;50.074;19.920;2023-04-27T10:47:36;8.65;;;4.35;;
19919;SDS011;10122;50.074;19.920;2023-04-27T10:50:05;6.57;;;4.40;;
19919;SDS011;10122;50.074;19.920;2023-04-27T10:52:32;9.32;;;4.47;;
19919;SDS011;10122;50.074;19.920;2023-04-27T10:55:03;7.95;;;4.05;;
19919;SDS011;10122;50.074;19.920;2023-04-27T10:57:44;7.53;;;3.90;;
19919;SDS011;10122;50.074;19.920;2023-04-27T11:00:10;8.70;;;4.32;;
19919;SDS011;10122;50.074;19.920;2023-04-27T11:02:38;7.35;;;3.85;;
19919;SDS011;10122;50.074;19.920;2023-04-27T11:05:14;8.80;;;4.03;;
19919;SDS011;10122;50.074;19.920;2023-04-27T11:07:43;6.93;;;4.00;;
19919;SDS011;10122;50.074;19.920;2023-04-27T11:10:13;8.68;;;4.20;;
19919;SDS011;10122;50.074;19.920;2023-04-27T11:12:40;9.52;;;3.90;;
19919;SDS011;10122;50.074;19.920;2023-04-27T11:15:06;8.82;;;3.67;;
19919;SDS011;10122;50.074;19.920;2023-04-27T11:17:33;10.25;;;4.00;;
19919;SDS011;10122;50.074;19.920;2023-04-27T11:19:59;7.15;;;3.90;;
19919;SDS011;10122;50.074;19.920;2023-04-27T11:22:24;11.05;;;4.20;;
19919;SDS011;10122;50.074;19.920;2023-04-27T11:24:51;8.05;;;4.30;;
19919;SDS011;10122;50.074;19.920;2023-04-27T11:27:18;9.48;;;4.80;;
19919;SDS011;10122;50.074;19.920;2023-04-27T11:29:46;6.55;;;4.25;;
19919;SDS011;10122;50.074;19.920;2023-04-27T11:32:21;10.27;;;4.57;;
19919;SDS011;10122;50.074;19.920;2023-04-27T11:34:50;9.35;;;4.28;;
19919;SDS011;10122;50.074;19.920;2023-04-27T11:37:24;8.70;;;4.25;;
19919;SDS011;10122;50.074;19.920;2023-04-27T11:39:51;7.15;;;4.38;;
19919;SDS011;10122;50.074;19.920;2023-04-27T11:42:19;6.70;;;3.95;;
19919;SDS011;10122;50.074;19.920;2023-04-27T11:44:55;8.93;;;4.47;;
19919;SDS011;10122;50.074;19.920;2023-04-27T11:47:28;8.27;;;4.43;;
19919;SDS011;10122;50.074;19.920;2023-04-27T11:49:57;8.23;;;4.40;;
19919;SDS011;10122;50.074;19.920;2023-04-27T11:52:32;7.85;;;4.30;;
19919;SDS011;10122;50.074;19.920;2023-04-27T11:55:00;11.32;;;4.80;;
19919;SDS011;10122;50.074;19.920;2023-04-27T11:57:28;9.25;;;4.72;;
19919;SDS011;10122;50.074;19.920;2023-04-27T11:59:56;8.23;;;4.68;;
19919;SDS011;10122;50.074;19.920;2023-04-27T12:02:24;8.85;;;4.22;;
19919;SDS011;10122;50.074;19.920;2023-04-27T12:04:51;9.40;;;5.00;;
19919;SDS011;10122;50.074;19.920;2023-04-27T12:07:17;9.23;;;4.50;;
19919;SDS011;10122;50.074;19.920;2023-04-27T12:09:43;8.15;;;4.30;;
19919;SDS011;10122;50.074;19.920;2023-04-27T12:12:10;9.68;;;4.85;;
19919;SDS011;10122;50.074;19.920;2023-04-27T12:14:42;7.82;;;4.72;;
19919;SDS011;10122;50.074;19.920;2023-04-27T12:17:08;7.93;;;4.20;;
19919;SDS011;10122;50.074;19.920;2023-04-27T12:19:34;7.65;;;4.47;;
19919;SDS011;10122;50.074;19.920;2023-04-27T12:22:01;8.52;;;4.50;;
19919;SDS011;10122;50.074;19.920;2023-04-27T12:24:26;7.00;;;4.60;;
19919;SDS011;10122;50.074;19.920;2023-04-27T12:26:52;8.00;;;4.30;;
19919;SDS011;10122;50.074;19.920;2023-04-27T12:29:18;8.30;;;3.92;;
19919;SDS011;10122;50.074;19.920;2023-04-27T12:31:44;6.25;;;4.15;;
19919;SDS011;10122;50.074;19.920;2023-04-27T12:34:10;10.82;;;4.90;;
19919;SDS011;10122;50.074;19.920;2023-04-27T12:36:36;7.65;;;4.50;;
19919;SDS011;10122;50.074;19.920;2023-04-27T12:39:21;7.38;;;4.50;;
19919;SDS011;10122;50.074;19.920;2023-04-27T12:41:49;6.97;;;4.30;;
19919;SDS011;10122;50.074;19.920;2023-04-27T12:44:16;7.60;;;4.47;;
19919;SDS011;10122;50.074;19.920;2023-04-27T12:46:43;9.15;;;4.68;;
19919;SDS011;10122;50.074;19.920;2023-04-27T12:49:10;7.90;;;4.70;;
19919;SDS011;10122;50.074;19.920;2023-04-27T12:51:36;6.95;;;4.22;;
19919;SDS011;10122;50.074;19.920;2023-04-27T12:54:02;8.88;;;4.15;;
19919;SDS011;10122;50.074;19.920;2023-04-27T12:56:29;6.90;;;4.13;;
19919;SDS011;10122;50.074;19.920;2023-04-27T12:58:54;9.25;;;4.70;;
19919;SDS011;10122;50.074;19.920;2023-04-27T13:01:21;7.10;;;4.35;;
19919;SDS011;10122;50.074;19.920;2023-04-27T13:03:51;8.38;;;4.78;;
19919;SDS011;10122;50.074;19.920;2023-04-27T13:06:18;6.93;;;4.55;;
19919;SDS011;10122;50.074;19.920;2023-04-27T13:08:46;6.95;;;4.90;;
19919;SDS011;10122;50.074;19.920;2023-04-27T13:11:13;8.13;;;4.50;;
19919;SDS011;10122;50.074;19.920;2023-04-27T13:13:38;8.27;;;4.43;;
19919;SDS011;10122;50.074;19.920;2023-04-27T13:16:05;6.15;;;4.22;;
19919;SDS011;10122;50.074;19.920;2023-04-27T13:18:31;9.65;;;4.88;;
19919;SDS011;10122;50.074;19.920;2023-04-27T13:20:56;7.70;;;4.72;;
19919;SDS011;10122;50.074;19.920;2023-04-27T13:23:22;6.82;;;4.18;;
19919;SDS011;10122;50.074;19.920;2023-04-27T13:25:48;9.88;;;4.65;;
19919;SDS011;10122;50.074;19.920;2023-04-27T13:28:14;10.95;;;5.00;;
19919;SDS011;10122;50.074;19.920;2023-04-27T13:30:40;8.68;;;4.78;;
19919;SDS011;10122;50.074;19.920;2023-04-27T13:33:06;9.63;;;4.88;;
19919;SDS011;10122;50.074;19.920;2023-04-27T13:35:36;9.73;;;4.88;;
19919;SDS011;10122;50.074;19.920;2023-04-27T13:38:02;9.68;;;5.03;;
19919;SDS011;10122;50.074;19.920;2023-04-27T13:40:28;6.78;;;4.60;;
19919;SDS011;10122;50.074;19.920;2023-04-27T13:42:53;8.00;;;5.03;;
19919;SDS011;10122;50.074;19.920;2023-04-27T13:45:19;10.60;;;5.00;;
19919;SDS011;10122;50.074;19.920;2023-04-27T13:47:45;8.95;;;4.90;;
19919;SDS011;10122;50.074;19.920;2023-04-27T13:50:11;9.27;;;4.30;;
19919;SDS011;10122;50.074;19.920;2023-04-27T13:52:37;9.77;;;4.80;;
19919;SDS011;10122;50.074;19.920;2023-04-27T13:55:04;7.55;;;4.40;;
19919;SDS011;10122;50.074;19.920;2023-04-27T13:57:31;7.43;;;4.72;;
19919;SDS011;10122;50.074;19.920;2023-04-27T13:59:57;9.50;;;4.60;;
19919;SDS011;10122;50.074;19.920;2023-04-27T14:02:24;9.27;;;4.90;;
19919;SDS011;10122;50.074;19.920;2023-04-27T14:04:51;10.82;;;5.05;;
19919;SDS011;10122;50.074;19.920;2023-04-27T14:07:17;7.95;;;5.10;;
19919;SDS011;10122;50.074;19.920;2023-04-27T14:09:44;7.40;;;4.55;;
19919;SDS011;10122;50.074;19.920;2023-04-27T14:12:10;8.45;;;4.35;;
19919;SDS011;10122;50.074;19.920;2023-04-27T14:14:36;8.05;;;4.22;;
19919;SDS011;10122;50.074;19.920;2023-04-27T14:17:02;6.97;;;4.10;;
19919;SDS011;10122;50.074;19.920;2023-04-27T14:19:28;8.20;;;3.83;;
19919;SDS011;10122;50.074;19.920;2023-04-27T14:21:54;8.88;;;4.07;;
19919;SDS011;10122;50.074;19.920;2023-04-27T14:24:20;6.43;;;3.92;;
19919;SDS011;10122;50.074;19.920;2023-04-27T14:26:47;7.55;;;4.20;;
19919;SDS011;10122;50.074;19.920;2023-04-27T14:29:13;7.47;;;3.95;;
19919;SDS011;10122;50.074;19.920;2023-04-27T14:31:39;8.80;;;4.20;;